Toronto, South Dakota
Current Conditions -  °F | °C
As of 11:13 PM on Tuesday 25 Nov 2014 (Local Time) from KCNB Reporting Station
Light Snow Light Snow  
Wind Chill: 20°   Ceiling: 2100
Heat Index: 28°   Visibility: 4mi
Dew Point: 26°   Wind: 8mph
Humidity: 92%   Direction: 110°ESE
Pressure: 29.88"   Gusts: NA
Location:  44.57°N, 96.64°W
Report Text: KCNB 260513Z AUTO 11007KT 4SM -SN OVC021 M02/M03 A2988 RMK AO2 T10201031
Loading
Personal Weather Stations






























Interactive Weather Map New forecast layout! Learn more

10-Day Weather Forecast

Advertisements
Track Severe Weather on mobile